Time;durP1;ratioP1;P1;durP2;ratioP2;P2;SDS_P1;SDS_P2;PMS_P1;PMS_P2;Temp;Humidity;BMP_temperature;BMP_pressure;BME280_temperature;BME280_humidity;BME280_pressure;Samples;Min_cycle;Max_cycle;Signal;HPM_P1;HPM_P2
2023/02/23 00:02:03;;;;;;;52.15;25.55;;;5.60;99.90;;;4.11;100.00;100238.00;5049962;28;20033;-76
2023/02/23 00:04:28;;;;;;;56.55;25.92;;;5.70;99.90;;;4.21;100.00;100236.88;5045904;28;20040;-77
2023/02/23 00:06:54;;;;;;;57.28;25.27;;;5.70;99.90;;;4.24;100.00;100237.34;5040861;28;20436;-76
2023/02/23 00:09:23;;;;;;;56.95;25.17;;;5.80;99.90;;;4.30;100.00;100235.78;5035050;28;20036;-76
2023/02/23 00:11:56;;;;;;;52.42;26.02;;;5.80;99.90;;;4.30;100.00;100233.06;5035048;28;20509;-76
2023/02/23 00:14:27;;;;;;;56.30;25.40;;;5.90;99.90;;;4.24;100.00;100234.66;5034788;28;20040;-77
2023/02/23 00:16:55;;;;;;;53.90;25.75;;;5.80;99.90;;;4.18;100.00;100238.91;5041068;28;20037;-76
2023/02/23 00:19:23;;;;;;;51.53;24.23;;;5.80;99.90;;;4.13;100.00;100235.13;5037416;28;20085;-77
2023/02/23 00:21:49;;;;;;;54.35;25.63;;;5.80;99.90;;;4.09;100.00;100233.78;5037071;28;20083;-76
2023/02/23 00:24:19;;;;;;;54.72;26.13;;;5.70;99.90;;;4.06;100.00;100231.44;5061125;28;20155;-76
2023/02/23 00:26:47;;;;;;;55.03;25.83;;;5.70;99.90;;;4.03;100.00;100228.09;5039887;28;20038;-76
2023/02/23 00:29:20;;;;;;;49.20;23.92;;;5.70;99.90;;;4.04;100.00;100237.06;5034698;28;20184;-76
2023/02/23 00:31:48;;;;;;;60.72;25.42;;;5.60;99.90;;;4.17;100.00;100229.16;5049859;28;20113;-76
2023/02/23 00:34:22;;;;;;;53.00;24.98;;;5.70;99.90;;;4.15;100.00;100228.50;5034342;28;20518;-77
2023/02/23 00:36:54;;;;;;;48.92;23.40;;;5.80;99.90;;;4.06;100.00;100220.66;5033324;28;20045;-77
2023/02/23 00:39:21;;;;;;;51.75;23.02;;;5.70;99.90;;;3.96;100.00;100219.06;5049777;28;20034;-77
2023/02/23 00:41:49;;;;;;;50.60;23.92;;;5.60;99.90;;;3.83;100.00;100221.53;5054979;28;20124;-76
2023/02/23 00:44:15;;;;;;;49.33;22.60;;;5.50;99.90;;;3.70;100.00;100224.88;5045318;28;20056;-77
2023/02/23 00:46:43;;;;;;;50.55;22.83;;;5.40;99.90;;;3.63;100.00;100226.63;5040609;28;20374;-77
2023/02/23 00:49:12;;;;;;;49.75;22.75;;;5.30;99.90;;;3.67;100.00;100222.53;5063533;28;20495;-77
2023/02/23 00:51:38;;;;;;;47.92;22.75;;;5.30;99.90;;;3.72;100.00;100223.69;5046950;28;20066;-76
2023/02/23 00:54:06;;;;;;;53.75;24.90;;;5.30;99.90;;;3.80;100.00;100228.16;5049217;28;20379;-77
2023/02/23 00:56:32;;;;;;;53.90;23.95;;;5.40;99.90;;;3.88;100.00;100221.84;5061566;28;20115;-77
2023/02/23 00:58:58;;;;;;;62.00;26.75;;;5.50;99.90;;;4.01;100.00;100226.63;5061543;28;20477;-76
2023/02/23 01:01:26;;;;;;;59.67;25.77;;;5.60;99.90;;;4.06;100.00;100218.81;5039415;28;20116;-77
2023/02/23 01:03:54;;;;;;;54.08;24.60;;;5.70;99.90;;;4.12;100.00;100222.63;5042735;28;20481;-77
2023/02/23 01:06:21;;;;;;;54.95;26.50;;;5.70;99.90;;;4.17;100.00;100223.75;5044020;28;20124;-77
2023/02/23 01:08:50;;;;;;;53.20;26.30;;;5.80;99.90;;;4.15;100.00;100228.50;5032598;28;20038;-77
2023/02/23 01:11:26;;;;;;;58.08;25.65;;;5.70;99.90;;;4.14;100.00;100232.22;5035751;28;20029;-77
2023/02/23 01:13:56;;;;;;;51.97;24.15;;;5.80;99.90;;;4.07;100.00;100230.44;5051388;28;20033;-77
2023/02/23 01:16:27;;;;;;;48.85;22.80;;;5.60;99.90;;;4.01;100.00;100223.94;5050806;28;20127;-76
2023/02/23 01:18:56;;;;;;;51.47;24.33;;;5.60;99.90;;;3.96;100.00;100223.63;5044603;28;20396;-77
2023/02/23 01:21:28;;;;;;;54.78;25.13;;;5.50;99.90;;;4.04;100.00;100220.84;5041943;28;20044;-77
2023/02/23 01:23:55;;;;;;;59.70;24.88;;;5.60;99.90;;;4.15;100.00;100220.38;5035026;28;20045;-77
2023/02/23 01:26:30;;;;;;;53.60;25.60;;;5.70;99.90;;;4.25;100.00;100214.72;5054217;28;20126;-77
2023/02/23 01:28:59;;;;;;;54.85;24.88;;;5.80;99.90;;;4.32;100.00;100225.63;5048143;28;20428;-77
2023/02/23 01:31:27;;;;;;;53.78;25.02;;;5.90;99.90;;;4.30;100.00;100227.69;5042291;28;20044;-77
2023/02/23 01:33:55;;;;;;;58.53;26.35;;;5.80;99.90;;;4.36;100.00;100221.53;5057156;28;20079;-77
2023/02/23 01:36:21;;;;;;;49.72;24.92;;;5.90;99.90;;;4.39;100.00;100229.25;5047197;28;20116;-77
2023/02/23 01:38:48;;;;;;;55.38;25.80;;;5.90;99.90;;;4.52;100.00;100216.97;5036327;28;20037;-76
2023/02/23 01:41:15;;;;;;;57.60;27.70;;;6.00;99.90;;;4.74;100.00;100218.69;5055297;28;20029;-77
2023/02/23 01:44:29;;;;;;;51.72;25.27;;;6.20;99.90;;;4.81;100.00;100220.66;5068273;28;20214;-77
2023/02/23 01:46:57;;;;;;;55.17;26.55;;;6.40;99.90;;;4.94;100.00;100214.56;5052167;28;20130;-76
2023/02/23 01:49:27;;;;;;;54.20;27.37;;;6.50;99.90;;;5.03;100.00;100216.13;5059295;28;20044;-77
2023/02/23 01:52:06;;;;;;;53.03;27.02;;;6.50;99.90;;;5.01;100.00;100220.88;5065329;28;20093;-77
2023/02/23 01:54:43;;;;;;;50.95;26.85;;;6.50;99.90;;;4.99;100.00;100220.22;5038072;28;20461;-77
2023/02/23 01:57:13;;;;;;;48.88;25.10;;;6.50;99.90;;;5.01;100.00;100221.69;5055698;28;20037;-76
2023/02/23 01:59:46;;;;;;;48.20;24.90;;;6.50;99.90;;;5.04;100.00;100220.50;5023769;28;20116;-77
2023/02/23 02:02:14;;;;;;;42.58;24.30;;;6.60;99.90;;;5.06;100.00;100228.44;5044569;28;20040;-77
2023/02/23 02:04:45;;;;;;;41.80;23.92;;;6.60;99.90;;;5.07;100.00;100235.50;5046955;28;20131;-77
2023/02/23 02:07:21;;;;;;;45.38;24.17;;;6.60;99.90;;;5.10;100.00;100230.53;5039296;28;20033;-79
2023/02/23 02:12:43;;;;;;;43.22;24.25;;;6.70;99.90;;;5.24;100.00;100241.53;5047569;28;20025;-77
2023/02/23 02:15:15;;;;;;;42.55;24.30;;;6.70;99.90;;;5.24;100.00;100245.03;5039114;28;20393;-77
2023/02/23 02:18:17;;;;;;;41.00;22.98;;;6.70;99.90;;;5.15;100.00;100233.50;5053861;28;20544;-76
2023/02/23 02:21:39;;;;;;;40.08;22.63;;;6.70;99.90;;;5.13;100.00;100250.97;5032777;28;20038;-76
2023/02/23 02:24:46;;;;;;;40.28;22.20;;;6.60;99.90;;;5.08;100.00;100243.41;5032587;28;20043;-76
2023/02/23 02:27:36;;;;;;;39.53;22.52;;;6.60;99.90;;;5.06;100.00;100250.06;5041575;28;20035;-77
2023/02/23 02:30:26;;;;;;;43.40;23.92;;;6.50;99.90;;;5.06;100.00;100245.47;5048734;28;20432;-77
2023/02/23 02:33:47;;;;;;;41.83;24.77;;;6.50;99.90;;;5.09;100.00;100244.28;5056540;28;20041;-77
2023/02/23 02:37:13;;;;;;;49.65;27.25;;;6.60;99.90;;;5.12;100.00;100249.28;5037817;28;20037;-77
2023/02/23 02:40:15;;;;;;;57.17;29.98;;;6.60;99.90;;;5.22;100.00;100251.69;5041681;28;20041;-77
2023/02/23 02:43:24;;;;;;;54.47;30.05;;;6.70;99.90;;;5.31;100.00;100253.25;5032414;28;20037;-78
2023/02/23 02:46:00;;;;;;;58.03;31.50;;;6.80;99.90;;;5.36;100.00;100263.50;5049378;28;20080;-77
2023/02/23 02:48:41;;;;;;;58.22;32.10;;;6.80;99.90;;;5.38;100.00;100266.84;5056280;28;20443;-78
2023/02/23 02:51:38;;;;;;;57.63;31.73;;;6.80;99.90;;;5.36;100.00;100271.63;5055666;28;20476;-77
2023/02/23 02:54:30;;;;;;;60.50;31.30;;;6.80;99.90;;;5.37;100.00;100276.00;5058802;28;20484;-77
2023/02/23 02:57:01;;;;;;;59.35;32.53;;;6.90;99.90;;;5.41;100.00;100274.56;5032149;28;20040;-77
2023/02/23 04:18:33;;;;;;;91.05;47.13;;;7.20;99.90;;;5.79;100.00;100300.56;5035181;28;20100;-77
2023/02/23 04:20:59;;;;;;;92.88;48.72;;;7.30;99.90;;;5.91;100.00;100307.09;5042092;28;20076;-77
2023/02/23 04:23:27;;;;;;;86.07;46.35;;;7.30;99.90;;;5.93;100.00;100313.16;5053703;28;20532;-77
2023/02/23 04:25:54;;;;;;;86.15;47.53;;;7.40;99.90;;;5.93;100.00;100309.63;5039545;28;20069;-77
2023/02/23 04:28:22;;;;;;;93.82;48.17;;;7.40;99.90;;;6.01;100.00;100313.09;5046222;28;20065;-77
2023/02/23 04:30:48;;;;;;;;;;;7.50;99.90;;;6.04;100.00;100311.84;5035166;28;20509;-77
2023/02/23 04:33:14;;;;;;;90.40;47.55;;;7.50;99.90;;;6.14;100.00;100312.38;5034466;28;20004;-78
2023/02/23 04:35:40;;;;;;;82.68;43.95;;;7.60;99.90;;;6.23;100.00;100323.03;5053140;28;20045;-77
2023/02/23 04:38:06;;;;;;;87.05;46.92;;;7.70;99.90;;;6.27;100.00;100319.75;5043086;28;20033;-77
2023/02/23 04:40:32;;;;;;;82.55;45.75;;;7.80;99.90;;;6.28;100.00;100326.00;5050673;28;20111;-77
2023/02/23 04:42:58;;;;;;;85.20;47.42;;;7.80;99.90;;;6.31;100.00;100328.31;5045712;28;20125;-76
2023/02/23 04:45:25;;;;;;;83.20;44.28;;;7.80;99.90;;;6.26;100.00;100326.22;5039213;28;20128;-77
2023/02/23 04:47:51;;;;;;;83.95;44.90;;;7.80;99.90;;;6.21;100.00;100328.66;5039438;28;20378;-76
2023/02/23 04:50:18;;;;;;;82.60;45.15;;;7.70;99.90;;;6.17;100.00;100333.63;5039672;28;20481;-77
2023/02/23 04:52:44;;;;;;;77.30;42.00;;;7.70;99.90;;;6.06;100.00;100341.44;5033642;28;20053;-77
2023/02/23 04:55:20;;;;;;;78.15;44.55;;;7.60;99.90;;;5.96;100.00;100330.91;5038109;28;20032;-77
2023/02/23 04:57:46;;;;;;;76.18;43.17;;;7.50;99.90;;;5.93;100.00;100331.31;5040391;28;20035;-78
2023/02/23 05:00:12;;;;;;;74.35;41.13;;;7.40;99.90;;;5.86;100.00;100342.06;5062131;28;20034;-77
2023/02/23 05:02:39;;;;;;;71.28;41.58;;;7.40;99.90;;;5.70;100.00;100332.31;5036418;28;20037;-77
2023/02/23 05:05:06;;;;;;;74.85;40.92;;;7.30;99.90;;;5.69;100.00;100333.34;5033579;28;20060;-77
2023/02/23 05:07:32;;;;;;;72.80;41.22;;;7.30;99.90;;;5.64;100.00;100333.91;5055589;28;20362;-77
2023/02/23 05:09:58;;;;;;;70.70;40.03;;;7.20;99.90;;;5.65;100.00;100337.47;5051274;28;20108;-77
2023/02/23 05:12:24;;;;;;;75.40;40.90;;;7.20;99.90;;;5.65;100.00;100342.91;5041128;28;20144;-77
2023/02/23 05:14:50;;;;;;;80.43;42.63;;;7.20;99.90;;;5.67;100.00;100340.84;5046771;28;20037;-77
2023/02/23 05:17:16;;;;;;;76.00;41.88;;;7.20;99.90;;;5.61;100.00;100340.56;5044530;28;20036;-77
2023/02/23 05:19:41;;;;;;;79.60;44.38;;;7.10;99.90;;;5.64;100.00;100344.75;5045261;28;20036;-77
2023/02/23 05:22:11;;;;;;;85.88;44.42;;;7.20;99.90;;;5.65;100.00;100334.78;5045149;28;20037;-77
2023/02/23 05:24:38;;;;;;;87.28;44.97;;;7.20;99.90;;;5.76;100.00;100328.84;5038811;28;20047;-78
2023/02/23 05:27:06;;;;;;;90.65;48.25;;;7.20;99.90;;;5.96;100.00;100328.19;5060810;28;20041;-77
2023/02/23 05:29:31;;;;;;;96.25;49.95;;;7.40;99.90;;;6.02;100.00;100328.31;5042258;28;20063;-76
2023/02/23 05:31:57;;;;;;;92.30;50.13;;;7.50;99.90;;;6.05;100.00;100329.75;5039541;28;20041;-76
2023/02/23 05:34:23;;;;;;;95.63;49.58;;;7.50;99.90;;;6.05;100.00;100335.19;5041688;28;20542;-76
2023/02/23 05:36:49;;;;;;;92.82;49.70;;;7.60;99.90;;;6.08;100.00;100329.38;5031974;28;20056;-76
2023/02/23 05:39:14;;;;;;;93.05;48.00;;;7.60;99.90;;;6.07;100.00;100338.53;5042842;28;20041;-76
2023/02/23 05:41:40;;;;;;;87.63;48.35;;;7.60;99.90;;;6.08;100.00;100331.25;5048822;28;20042;-77
2023/02/23 05:44:06;;;;;;;97.20;47.90;;;7.60;99.90;;;6.08;100.00;100334.78;5046915;28;20040;-77
2023/02/23 05:46:32;;;;;;;93.55;49.25;;;7.60;99.90;;;6.15;100.00;100329.44;5040363;28;20041;-79
2023/02/23 05:48:59;;;;;;;89.55;47.22;;;7.70;99.90;;;6.15;100.00;100335.72;5036341;28;20041;-82
2023/02/23 05:51:29;;;;;;;86.10;45.33;;;7.70;99.90;;;6.14;100.00;100333.19;5055664;28;20040;-77
2023/02/23 05:53:55;;;;;;;86.63;45.83;;;7.70;99.90;;;6.13;100.00;100343.19;5036663;28;20136;-80
2023/02/23 05:56:21;;;;;;;85.10;46.22;;;7.70;99.90;;;6.12;100.00;100336.09;5042724;28;20044;-76
2023/02/23 05:58:51;;;;;;;82.53;44.88;;;7.70;99.90;;;6.13;100.00;100343.19;5039010;28;20095;-76
2023/02/23 06:01:18;;;;;;;79.03;44.70;;;7.70;99.90;;;6.08;100.00;100334.78;5032793;28;20540;-76
2023/02/23 06:03:45;;;;;;;81.97;44.17;;;7.60;99.90;;;6.07;100.00;100332.28;5048310;28;20041;-76
2023/02/23 06:06:11;;;;;;;84.50;45.58;;;7.60;99.90;;;6.00;100.00;100326.78;5037972;28;20041;-76
2023/02/23 06:08:37;;;;;;;82.63;44.25;;;7.60;99.90;;;6.00;100.00;100332.19;5058964;28;20146;-76
2023/02/23 06:11:03;;;;;;;83.60;43.92;;;7.60;99.90;;;5.99;100.00;100338.63;5047882;28;20060;-76
2023/02/23 06:13:30;;;;;;;84.72;44.88;;;7.60;99.90;;;5.97;100.00;100343.41;5043946;28;20100;-78
2023/02/23 06:15:58;;;;;;;75.45;41.90;;;7.50;99.90;;;5.94;100.00;100338.38;5059534;28;20037;-76
2023/02/23 06:18:25;;;;;;;75.55;40.25;;;7.50;99.90;;;5.92;100.00;100341.28;5053640;28;20469;-76
2023/02/23 06:20:50;;;;;;;69.53;40.30;;;7.50;99.90;;;5.80;100.00;100340.13;5040825;28;20104;-78
2023/02/23 06:23:17;;;;;;;77.13;41.47;;;7.40;99.90;;;5.69;100.00;100349.59;5032722;28;20028;-74
2023/02/23 06:25:45;;;;;;;79.93;43.03;;;7.30;99.90;;;5.63;100.00;100359.31;5053291;28;20473;-75
2023/02/23 06:28:10;;;;;;;;;;;7.20;99.90;;;5.63;100.00;100351.19;5048929;28;20435;-75
2023/02/23 06:30:37;;;;;;;82.78;43.30;;;7.20;99.90;;;5.69;100.00;100346.88;5036646;28;19921;-75
2023/02/23 06:33:04;;;;;;;86.28;44.58;;;7.20;99.90;;;5.74;100.00;100353.41;5051755;28;20037;-76
2023/02/23 06:35:31;;;;;;;84.27;43.77;;;7.30;99.90;;;5.82;100.00;100352.44;5052500;28;20041;-76
2023/02/23 06:37:57;;;;;;;82.22;43.45;;;7.30;99.90;;;5.86;100.00;100352.88;5052315;28;21165;-76
2023/02/23 06:40:23;;;;;;;85.15;46.05;;;7.40;99.90;;;5.87;100.00;100352.72;5032161;28;20045;-81
2023/02/23 06:42:49;;;;;;;81.82;42.50;;;7.40;99.90;;;5.87;100.00;100352.72;5032351;28;20033;-80
2023/02/23 06:45:16;;;;;;;81.22;43.00;;;7.40;99.90;;;5.87;100.00;100363.53;5036965;28;20039;-79
2023/02/23 06:47:43;;;;;;;81.15;44.75;;;7.50;99.90;;;5.95;100.00;100364.44;5037425;28;20108;-80
2023/02/23 06:50:10;;;;;;;81.57;45.13;;;7.50;99.90;;;5.97;100.00;100371.34;5031756;28;20041;-81
2023/02/23 06:52:36;;;;;;;76.93;43.20;;;7.50;99.90;;;5.96;100.00;100366.13;5036061;28;20057;-80
2023/02/23 06:55:02;;;;;;;83.45;44.03;;;7.50;99.90;;;5.98;100.00;100366.75;5039638;28;20072;-81
2023/02/23 06:57:28;;;;;;;85.70;46.08;;;7.60;99.90;;;6.04;100.00;100366.00;5042985;28;20034;-81
2023/02/23 06:59:54;;;;;;;82.95;44.47;;;7.60;99.90;;;6.03;100.00;100348.06;5035518;28;20063;-83
2023/02/23 07:02:20;;;;;;;86.00;43.35;;;7.60;99.90;;;6.12;100.00;100365.03;5052987;28;20385;-82
2023/02/23 07:04:46;;;;;;;81.28;43.22;;;7.70;99.90;;;6.11;100.00;100361.50;5029646;28;20053;-82
2023/02/23 07:07:13;;;;;;;80.97;44.17;;;7.70;99.90;;;6.13;100.00;100372.13;5045365;28;20042;-81
2023/02/23 07:09:41;;;;;;;83.28;43.20;;;7.70;99.90;;;6.14;100.00;100374.66;5056957;28;20112;-81
2023/02/23 07:12:09;;;;;;;71.18;39.75;;;7.70;99.90;;;6.15;100.00;100380.91;5039602;28;20045;-82
2023/02/23 07:14:36;;;;;;;73.05;41.22;;;7.70;99.90;;;6.13;100.00;100381.13;5045770;28;20041;-81
2023/02/23 07:17:03;;;;;;;75.20;39.47;;;7.70;99.90;;;6.10;100.00;100386.06;5038132;28;20049;-83
2023/02/23 07:19:31;;;;;;;70.20;40.22;;;7.70;99.90;;;6.11;100.00;100382.31;5037481;28;20033;-82
2023/02/23 07:21:57;;;;;;;72.80;40.67;;;7.70;99.90;;;6.08;100.00;100390.84;5039950;28;20116;-80
2023/02/23 07:24:23;;;;;;;68.13;38.85;;;7.60;99.90;;;6.10;100.00;100389.63;5047537;28;20037;-81
2023/02/23 07:26:48;;;;;;;80.47;42.00;;;7.60;99.90;;;6.16;100.00;100391.56;5039063;28;20033;-82
2023/02/23 07:29:15;;;;;;;75.22;41.20;;;7.70;99.90;;;6.24;100.00;100387.88;5059007;28;20036;-77
2023/02/23 07:31:41;;;;;;;73.55;41.50;;;7.80;99.90;;;6.28;100.00;100388.31;5047082;28;20056;-78
2023/02/23 07:34:08;;;;;;;77.55;42.05;;;7.80;99.90;;;6.31;100.00;100399.59;5031337;28;20393;-78
2023/02/23 07:36:34;;;;;;;73.07;40.50;;;7.90;99.90;;;6.39;100.00;100400.50;5052885;28;20386;-77
2023/02/23 07:39:01;;;;;;;67.07;39.17;;;7.90;99.90;;;6.42;100.00;100400.97;5040061;28;20275;-76
2023/02/23 07:41:26;;;;;;;76.82;42.58;;;8.00;99.90;;;6.49;100.00;100401.00;5046199;28;20746;-77
2023/02/23 07:43:52;;;;;;;79.30;43.38;;;8.00;99.90;;;6.52;100.00;100399.78;5047840;28;20040;-76
2023/02/23 07:46:18;;;;;;;74.85;41.80;;;8.10;99.90;;;6.66;100.00;100415.13;5053287;28;20037;-78
2023/02/23 07:48:43;;;;;;;73.15;41.20;;;8.20;99.90;;;6.68;100.00;100417.63;5042090;28;20038;-79
2023/02/23 07:51:15;;;;;;;72.80;40.45;;;8.20;99.90;;;6.75;100.00;100418.50;5055234;28;20097;-76
2023/02/23 07:53:42;;;;;;;71.70;39.88;;;8.30;99.90;;;6.84;100.00;100424.63;5034336;28;20041;-77
2023/02/23 07:56:11;;;;;;;74.07;41.40;;;8.40;99.90;;;6.80;100.00;100415.19;5036100;28;20037;-79
2023/02/23 07:58:42;;;;;;;70.95;39.70;;;8.40;99.90;;;6.86;100.00;100434.25;5032970;28;20034;-78
2023/02/23 08:01:09;;;;;;;71.80;41.20;;;8.40;99.90;;;6.90;100.00;100434.69;5048616;28;20045;-77
2023/02/23 08:03:34;;;;;;;79.85;42.20;;;8.40;99.90;;;6.90;100.00;100424.66;5039070;28;20095;-77
2023/02/23 08:06:00;;;;;;;80.10;42.03;;;8.50;99.90;;;6.95;100.00;100424.09;5034839;28;20041;-77
2023/02/23 08:08:27;;;;;;;82.85;44.85;;;8.50;99.90;;;6.98;100.00;100426.41;5035080;28;20382;-77
2023/02/23 08:11:04;;;;;;;82.43;43.65;;;8.60;99.90;;;7.05;100.00;100429.97;5034878;28;20113;-78
2023/02/23 08:13:30;;;;;;;82.22;43.97;;;8.60;99.90;;;7.04;100.00;100422.88;5051599;28;20065;-77
2023/02/23 08:15:57;;;;;;;81.00;43.85;;;8.60;99.90;;;7.06;100.00;100433.56;5036865;28;20033;-81
2023/02/23 08:18:23;;;;;;;80.38;43.90;;;8.60;99.90;;;7.08;100.00;100439.63;5034295;28;20481;-80
2023/02/23 08:20:48;;;;;;;79.55;43.92;;;8.60;99.90;;;7.05;100.00;100443.53;5041366;28;20465;-80
2023/02/23 08:23:16;;;;;;;78.18;43.38;;;8.60;99.90;;;7.03;100.00;100452.94;5043490;28;20036;-79
2023/02/23 08:25:42;;;;;;;81.50;44.50;;;8.60;99.90;;;6.99;100.00;100452.47;5044262;28;20038;-81
2023/02/23 08:28:08;;;;;;;81.13;44.10;;;8.50;99.90;;;6.98;100.00;100453.53;5036761;28;20047;-81
2023/02/23 08:30:34;;;;;;;80.68;43.97;;;8.50;99.90;;;6.98;100.00;100455.38;5042064;28;20400;-80
2023/02/23 08:33:00;;;;;;;87.13;44.28;;;8.50;99.90;;;6.95;100.00;100453.91;5054506;28;20146;-78
2023/02/23 08:35:28;;;;;;;79.45;44.10;;;8.50;99.90;;;6.91;100.00;100455.34;5048620;28;20053;-79
2023/02/23 08:37:56;;;;;;;84.13;44.42;;;8.40;99.90;;;6.89;100.00;100460.97;5041764;28;20037;-79
2023/02/23 08:40:22;;;;;;;85.20;45.47;;;8.40;99.90;;;6.87;100.00;100462.19;5044241;28;20044;-80
2023/02/23 08:42:48;;;;;;;83.82;44.40;;;8.40;99.90;;;6.85;100.00;100454.25;5042633;28;20041;-79
2023/02/23 08:45:14;;;;;;;77.45;44.25;;;8.40;99.90;;;6.88;100.00;100453.88;5041924;28;20041;-78
2023/02/23 08:47:40;;;;;;;80.57;42.67;;;8.40;99.90;;;6.88;100.00;100459.28;5052422;28;20041;-79
2023/02/23 08:50:09;;;;;;;88.30;45.47;;;8.40;99.90;;;6.83;100.00;100461.75;5034265;28;20416;-79
2023/02/23 08:52:36;;;;;;;81.10;43.00;;;8.40;99.90;;;6.86;100.00;100461.38;5038233;28;20144;-79
2023/02/23 08:55:03;;;;;;;80.50;43.15;;;8.40;99.90;;;6.87;100.00;100456.75;5053674;28;20500;-79
2023/02/23 08:57:32;;;;;;;81.22;44.15;;;8.40;99.90;;;6.88;100.00;100461.16;5051233;28;20028;-79
2023/02/23 08:59:58;;;;;;;82.47;44.00;;;8.40;99.90;;;6.87;100.00;100457.63;5054888;28;20040;-79
2023/02/23 09:02:23;;;;;;;80.47;43.85;;;8.40;99.90;;;6.89;100.00;100460.13;5035076;28;20025;-78
2023/02/23 09:04:52;;;;;;;82.60;44.05;;;8.40;99.90;;;6.87;100.00;100456.75;5037839;28;20064;-78
2023/02/23 09:07:21;;;;;;;79.15;42.85;;;8.40;99.90;;;6.84;100.00;100468.84;5036081;28;20041;-77
2023/02/23 09:09:56;;;;;;;79.85;42.50;;;8.40;99.90;;;6.85;100.00;100461.53;5051582;28;20120;-78
2023/02/23 09:12:22;;;;;;;87.85;44.15;;;8.40;99.90;;;6.80;100.00;100469.44;5042772;28;20044;-78
2023/02/23 09:14:49;;;;;;;85.63;44.55;;;8.40;99.90;;;6.80;100.00;100467.56;5043876;28;20660;-78
2023/02/23 09:17:16;;;;;;;88.28;44.88;;;8.40;99.90;;;6.75;100.00;100470.88;5033703;28;20029;-77
2023/02/23 09:19:42;;;;;;;90.20;45.30;;;8.30;99.90;;;6.74;100.00;100474.63;5037171;28;20099;-78
2023/02/23 09:22:08;;;;;;;92.30;45.92;;;8.30;99.90;;;6.69;100.00;100466.22;5039044;28;20048;-78
2023/02/23 09:24:34;;;;;;;91.50;45.25;;;8.30;99.90;;;6.71;100.00;100475.00;5038833;28;20052;-78
2023/02/23 09:27:00;;;;;;;93.13;45.03;;;8.30;99.90;;;6.72;100.00;100476.69;5038937;28;20579;-78
2023/02/23 09:29:26;;;;;;;95.55;47.13;;;8.30;99.90;;;6.69;100.00;100476.22;5042660;28;20048;-78
2023/02/23 09:31:51;;;;;;;98.93;47.63;;;8.30;99.90;;;6.64;100.00;100468.69;5045924;28;20389;-78
2023/02/23 09:34:19;;;;;;;101.53;49.65;;;8.20;99.90;;;6.66;100.00;100471.19;5037512;28;20855;-77
2023/02/23 09:36:44;;;;;;;101.85;50.13;;;8.20;99.90;;;6.73;100.00;100466.66;5037588;28;20415;-78
2023/02/23 09:39:10;;;;;;;104.72;49.10;;;8.30;99.90;;;6.75;100.00;100465.44;5033436;28;20045;-78
2023/02/23 09:42:15;;;;;;;100.22;49.75;;;8.30;99.90;;;6.79;100.00;100465.06;5038351;28;20041;-78
2023/02/23 09:45:06;;;;;;;106.47;49.78;;;8.40;99.90;;;6.84;100.00;100465.28;5037096;28;20116;-78
2023/02/23 09:48:04;;;;;;;103.32;48.72;;;8.40;99.90;;;6.80;100.00;100469.44;5042904;28;20045;-77
2023/02/23 09:50:33;;;;;;;109.32;50.92;;;8.40;99.90;;;6.82;100.00;100467.38;5040962;28;20033;-77
2023/02/23 09:53:41;;;;;;;107.85;48.13;;;8.40;99.90;;;6.90;100.00;100472.66;5032763;28;20041;-78
2023/02/23 09:56:31;;;;;;;99.13;47.33;;;8.50;99.90;;;6.88;100.00;100472.00;5033170;28;20033;-77
2023/02/23 09:58:59;;;;;;;101.03;47.50;;;8.50;99.90;;;6.87;100.00;100470.31;5048172;28;20030;-77
2023/02/23 10:01:44;;;;;;;106.43;49.13;;;8.40;99.90;;;6.77;100.00;100473.41;5047526;28;20037;-77
2023/02/23 10:04:23;;;;;;;95.30;46.15;;;8.40;99.90;;;6.74;100.00;100477.31;5052536;28;20045;-77
2023/02/23 10:07:19;;;;;;;101.15;47.95;;;8.40;99.90;;;6.72;100.00;100482.09;5033125;28;20092;-77
2023/02/23 10:10:06;;;;;;;101.57;46.55;;;8.30;99.90;;;6.70;100.00;100478.75;5039028;28;20520;-78
2023/02/23 10:13:11;;;;;;;101.63;46.92;;;8.30;99.90;;;6.66;100.00;100484.75;5037178;28;20037;-77
2023/02/23 10:15:51;;;;;;;98.65;46.50;;;8.20;99.90;;;6.64;100.00;100470.56;5042990;28;20057;-80
2023/02/23 10:18:43;;;;;;;98.70;48.65;;;8.20;99.90;;;6.63;100.00;100477.88;5032756;28;20034;-79
2023/02/23 10:21:41;;;;;;;101.28;47.97;;;8.20;99.90;;;6.67;100.00;100481.88;5040126;28;20492;-83
2023/02/23 10:24:18;;;;;;;97.25;46.42;;;8.20;99.90;;;6.67;100.00;100478.28;5037344;28;20513;-80
2023/02/23 10:27:01;;;;;;;113.35;48.28;;;8.20;99.90;;;6.67;100.00;100467.44;5057499;28;20529;-78
2023/02/23 10:29:38;;;;;;;101.55;46.45;;;8.30;99.90;;;6.63;100.00;100480.56;5046033;28;20111;-78
2023/02/23 10:32:19;;;;;;;100.43;48.13;;;8.30;99.90;;;6.69;100.00;100477.09;5054398;28;20037;-78
2023/02/23 10:34:52;;;;;;;92.95;46.50;;;8.30;99.90;;;6.67;100.00;100481.00;5032383;28;20064;-77
2023/02/23 10:37:18;;;;;;;104.70;47.40;;;8.30;99.90;;;6.59;100.00;100476.56;5041635;28;20037;-77
2023/02/23 10:39:45;;;;;;;100.80;48.22;;;8.20;99.90;;;6.62;100.00;100481.59;5045499;28;20510;-76
2023/02/23 10:42:22;;;;;;;92.65;44.05;;;8.20;99.90;;;6.64;100.00;100470.56;5048083;28;20043;-76
2023/02/23 10:44:48;;;;;;;94.68;44.70;;;8.20;99.90;;;6.61;100.00;100469.06;5044079;28;20037;-77
2023/02/23 10:47:23;;;;;;;89.57;44.47;;;8.20;99.90;;;6.65;100.00;100474.94;5032153;28;20073;-77
2023/02/23 10:49:52;;;;;;;90.68;45.65;;;8.20;99.90;;;6.72;100.00;100473.97;5032265;28;20049;-76
2023/02/23 10:52:40;;;;;;;91.95;44.90;;;8.30;99.90;;;6.78;100.00;100474.22;5053344;28;20380;-76
2023/02/23 10:55:22;;;;;;;88.25;44.30;;;8.40;99.90;;;6.77;100.00;100481.53;5032350;28;20087;-76
2023/02/23 10:57:52;;;;;;;84.57;43.40;;;8.40;99.90;;;6.80;100.00;100473.00;5045111;28;20117;-76
2023/02/23 11:00:26;;;;;;;70.55;39.67;;;8.40;99.90;;;6.78;100.00;100474.22;5034687;28;20386;-77
2023/02/23 11:02:54;;;;;;;70.82;38.47;;;8.50;99.90;;;6.67;100.00;100478.28;5032342;28;20048;-76
2023/02/23 11:05:51;;;;;;;69.13;35.72;;;8.40;99.90;;;6.77;100.00;100478.81;5034889;28;20033;-76
2023/02/23 11:08:21;;;;;;;70.55;37.08;;;8.40;99.90;;;6.78;100.00;100487.78;5044232;28;20116;-76
2023/02/23 11:11:07;;;;;;;72.53;37.10;;;8.40;99.90;;;6.89;100.00;100481.81;5034617;28;20041;-76
2023/02/23 11:13:38;;;;;;;70.80;38.10;;;8.50;99.90;;;6.90;100.00;100472.66;5047300;28;20473;-76
2023/02/23 11:16:37;;;;;;;73.88;38.97;;;8.50;99.90;;;6.91;100.00;100474.34;5042375;28;20033;-76
2023/02/23 11:19:16;;;;;;;72.32;39.00;;;8.50;99.90;;;7.00;100.00;100465.00;5049817;28;20039;-76
2023/02/23 11:21:51;;;;;;;79.65;39.03;;;8.60;99.90;;;6.91;100.00;100463.50;5037877;28;20049;-76
2023/02/23 11:24:35;;;;;;;73.63;38.00;;;8.60;99.90;;;6.96;100.00;100473.72;5042233;28;20202;-75
2023/02/23 11:27:18;;;;;;;72.55;36.30;;;8.60;99.90;;;7.00;100.00;100462.28;5030247;28;20605;-76
2023/02/23 11:29:47;;;;;;;72.47;36.88;;;8.60;99.90;;;7.01;100.00;100469.41;5042207;28;20045;-76
2023/02/23 11:32:21;;;;;;;71.95;36.78;;;8.70;99.90;;;6.86;100.00;100465.94;5043945;28;20124;-76
2023/02/23 11:35:16;;;;;;;66.35;34.70;;;8.60;99.90;;;6.78;100.00;100472.38;5044493;28;20041;-76
2023/02/23 11:37:42;;;;;;;66.45;34.70;;;8.50;99.90;;;6.86;100.00;100465.94;5035548;28;20048;-76
2023/02/23 11:40:31;;;;;;;68.20;34.88;;;8.50;99.90;;;6.68;100.00;100461.00;5034909;28;20346;-75
2023/02/23 11:43:17;;;;;;;70.22;35.67;;;8.40;99.90;;;6.72;100.00;100467.69;5035877;28;20112;-76
2023/02/23 11:45:55;;;;;;;66.45;34.35;;;8.40;99.90;;;6.78;100.00;100464.22;5046905;28;20458;-76
2023/02/23 11:48:47;;;;;;;71.35;36.50;;;8.40;99.90;;;6.72;100.00;100460.41;5046671;28;20048;-76